Portada
METAR-TAF:

METAR-TAF

Aeroports :

Iekaterinburg, Rússia

latitud: 56-50N, longitud: 060-38E, altitud: 237 m

Observació

L'informe es va fer fa 34 minuts, a les 09:00 UTC
Vent 6 kt del Nord/Nord-Est, variant entre Nord/Nord-Oest i Nord-Est
Temperatura 23°C
Humitat 69%
Pressió 1008 hPa
Visibilitat 10 km o més
Núvols disperses a una alçada de 2800 ft, Cumulonimbus.

METAR: USSS 080900Z 02003MPS 340V040 9999 SCT028CB 23/17 Q1008 R26R/010060 NOSIG RMK QFE735/0980

Hora: 14:34 (09:34 UTC)

Pronòstic

L'informe es va fer fa 1 hora i 39 minuts, a les 07:55 UTC
Pronòstic vàlid del 08 a les 09 UTC al 09 a les 09 UTC
Vent 6 kt del Nord/Nord-Est amb ràfegues de 27 kt
Visibilitat: 6000 m
Cel ennuvolat a una alçada de 1100 ft, Cumulonimbus.
xàfecs de pluja
Temporalment
l' 08 a les 09 UTC al 09 a les 09 UTC
Vent 16 kt del Nord-Est amb ràfegues de 45 kt
tempesta, pluja, calamarsa

TAF: USSS 080755Z 0809/0909 02003G14MPS 6000 -SHRA BKN011CB TEMPO 0809/0909 04008G23MPS -TSRAGR

Observacions i pronòstics meteorològics de més de 4000 aeroports (METAR i TAF).

Les estacions disponibles són els punts grocs i vermells al mapa.

Posi el ratolí al punt desitjat per veure el nom de l'estació.

Feu clic per veure les observacions i els pronòstics meteorològics.

Per canviar el mapa: feu clic els botons verds amb una creu de color negre per apropar; al botó verd amb un guió per allunyar la imatge; o en les fletxes verdes per a mapes adjacents.


METAR-TAF: